Time;durP1;ratioP1;P1;durP2;ratioP2;P2;SDS_P1;SDS_P2;PMS_P1;PMS_P2;Temp;Humidity;BMP_temperature;BMP_pressure;BME280_temperature;BME280_humidity;BME280_pressure;Samples;Min_cycle;Max_cycle;Signal;HPM_P1;HPM_P2
2022/06/19 00:01:59;;;;;;;;;17.20;17.20;;;;;;;;5267774;28;8806;-68
2022/06/19 00:04:31;;;;;;;;;10.25;10.25;;;;;;;;5264951;28;9411;-70
2022/06/19 00:07:02;;;;;;;;;9.75;9.75;;;;;;;;5267131;28;9080;-68
2022/06/19 00:09:33;;;;;;;;;10.00;10.00;;;;;;;;5266024;28;8822;-68
2022/06/19 00:12:04;;;;;;;;;8.00;8.00;;;;;;;;5266195;28;8788;-68
2022/06/19 00:14:36;;;;;;;;;6.50;6.50;;;;;;;;5267867;28;8773;-68
2022/06/19 00:17:07;;;;;;;;;7.25;7.25;;;;;;;;5267223;28;8807;-68
2022/06/19 00:19:38;;;;;;;;;8.00;8.00;;;;;;;;5265464;28;8824;-68
2022/06/19 00:22:09;;;;;;;;;13.50;13.50;;;;;;;;5267334;28;8803;-69
2022/06/19 00:24:40;;;;;;;;;17.40;17.40;;;;;;;;5267010;28;10091;-68
2022/06/19 00:27:11;;;;;;;;;23.25;23.25;;;;;;;;5266891;28;8777;-68
2022/06/19 00:29:42;;;;;;;;;17.40;16.20;;;;;;;;5266708;28;8857;-68
2022/06/19 00:32:31;;;;;;;;;12.60;12.60;;;;;;;;5267315;28;8777;-68
2022/06/19 00:35:03;;;;;;;;;16.40;16.40;;;;;;;;5267038;28;8791;-68
2022/06/19 00:37:34;;;;;;;;;19.80;19.80;;;;;;;;5265806;28;9491;-68
2022/06/19 00:40:07;;;;;;;;;16.00;16.00;;;;;;;;5267482;28;8828;-68
2022/06/19 00:42:38;;;;;;;;;17.60;17.60;;;;;;;;5248981;28;8797;-68
2022/06/19 00:45:39;;;;;;;;;7.50;7.50;;;;;;;;5266916;28;8788;-69
2022/06/19 00:48:12;;;;;;;;;13.40;13.40;;;;;;;;5244685;28;8881;-68
2022/06/19 00:50:44;;;;;;;;;13.20;13.20;;;;;;;;5246044;28;8763;-69
2022/06/19 00:53:40;;;;;;;;;12.80;12.80;;;;;;;;5246085;28;8791;-69
2022/06/19 00:56:14;;;;;;;;;7.00;7.00;;;;;;;;5246646;28;8771;-68
2022/06/19 00:58:47;;;;;;;;;3.75;3.75;;;;;;;;5244840;28;8806;-68
2022/06/19 01:01:19;;;;;;;;;5.00;5.00;;;;;;;;5245135;28;8810;-66
2022/06/19 01:04:00;;;;;;;;;4.25;4.25;;;;;;;;5259304;28;8875;-68
2022/06/19 01:06:31;;;;;;;;;6.67;6.67;;;;;;;;5266314;28;8779;-66
2022/06/19 01:09:03;;;;;;;;;6.00;6.00;;;;;;;;5266451;28;8765;-66
2022/06/19 01:11:35;;;;;;;;;8.25;8.00;;;;;;;;5267003;28;8789;-67
2022/06/19 01:14:09;;;;;;;;;6.00;6.00;;;;;;;;5266851;28;8810;-67
2022/06/19 01:16:40;;;;;;;;;6.00;6.00;;;;;;;;5267135;28;8776;-67
2022/06/19 01:19:13;;;;;;;;;5.00;5.00;;;;;;;;5282801;28;8854;-67
2022/06/19 01:22:10;;;;;;;;;6.00;6.00;;;;;;;;5291987;28;8769;-67
2022/06/19 01:24:48;;;;;;;;;6.50;6.50;;;;;;;;5273511;28;8770;-67
2022/06/19 01:30:30;;;;;;;;;9.20;9.20;;;;;;;;5291739;28;8787;-67
2022/06/19 01:33:03;;;;;;;;;14.00;14.00;;;;;;;;5273476;28;8750;-67
2022/06/19 01:35:36;;;;;;;;;14.40;14.40;;;;;;;;5257066;28;8766;-67
2022/06/19 01:38:09;;;;;;;;;11.50;11.50;;;;;;;;5291925;28;8754;-68
2022/06/19 01:40:42;;;;;;;;;8.00;7.50;;;;;;;;5256154;28;8802;-68
2022/06/19 01:43:13;;;;;;;;;5.00;5.00;;;;;;;;5291454;28;9485;-66
2022/06/19 01:45:48;;;;;;;;;5.25;5.25;;;;;;;;5255780;28;8816;-66
2022/06/19 01:48:20;;;;;;;;;6.25;6.25;;;;;;;;5273041;28;8778;-68
2022/06/19 01:50:53;;;;;;;;;4.75;4.75;;;;;;;;5291158;28;8750;-67
2022/06/19 01:53:31;;;;;;;;;10.25;10.25;;;;;;;;5291128;28;8813;-67
2022/06/19 01:56:03;;;;;;;;;16.80;16.80;;;;;;;;5291131;28;8765;-67
2022/06/19 01:58:36;;;;;;;;;10.25;10.25;;;;;;;;5291084;28;8893;-68
2022/06/19 02:01:08;;;;;;;;;8.00;8.00;;;;;;;;5272606;28;8798;-68
2022/06/19 02:03:50;;;;;;;;;9.50;9.50;;;;;;;;5290981;28;8817;-68
2022/06/19 02:06:23;;;;;;;;;18.00;18.00;;;;;;;;5290781;28;8921;-68
2022/06/19 02:09:17;;;;;;;;;12.80;12.80;;;;;;;;5290993;28;9507;-68
2022/06/19 02:11:48;;;;;;;;;16.20;16.20;;;;;;;;5290798;28;8804;-68
2022/06/19 02:14:20;;;;;;;;;13.00;13.00;;;;;;;;5272851;28;8792;-68
2022/06/19 02:16:52;;;;;;;;;13.25;13.25;;;;;;;;5271811;28;8782;-68
2022/06/19 02:19:23;;;;;;;;;11.75;11.25;;;;;;;;5272637;28;8806;-68
2022/06/19 02:21:55;;;;;;;;;20.25;20.25;;;;;;;;5290919;28;8825;-68
2022/06/19 02:24:26;;;;;;;;;17.60;17.60;;;;;;;;5290370;28;9469;-68
2022/06/19 02:26:58;;;;;;;;;6.00;6.00;;;;;;;;5290201;28;8790;-68
2022/06/19 02:29:29;;;;;;;;;7.25;7.25;;;;;;;;5290058;28;8773;-68
2022/06/19 02:32:01;;;;;;;;;14.20;14.20;;;;;;;;5255695;28;8819;-68
2022/06/19 02:34:36;;;;;;;;;18.40;18.40;;;;;;;;5290445;28;8770;-68
2022/06/19 02:37:10;;;;;;;;;7.50;7.50;;;;;;;;5271850;28;8789;-68
2022/06/19 02:39:53;;;;;;;;;7.00;7.00;;;;;;;;5290449;28;8798;-68
2022/06/19 02:42:43;;;;;;;;;12.00;12.00;;;;;;;;5289850;28;8750;-69
2022/06/19 02:45:16;;;;;;;;;11.75;11.75;;;;;;;;5269306;28;8876;-68
2022/06/19 02:47:48;;;;;;;;;8.50;8.50;;;;;;;;5271507;28;8867;-68
2022/06/19 02:50:25;;;;;;;;;9.75;9.75;;;;;;;;5271701;28;8797;-68
2022/06/19 02:52:57;;;;;;;;;11.00;11.00;;;;;;;;5255270;28;8778;-68
2022/06/19 02:55:28;;;;;;;;;7.00;7.00;;;;;;;;5290023;28;8789;-68
2022/06/19 02:57:59;;;;;;;;;6.50;6.50;;;;;;;;5271623;28;8747;-68
2022/06/19 03:00:30;;;;;;;;;13.00;13.00;;;;;;;;5271318;28;8832;-68
2022/06/19 03:03:06;;;;;;;;;10.50;10.50;;;;;;;;5289333;28;8871;-68
2022/06/19 03:05:37;;;;;;;;;7.50;7.50;;;;;;;;5271692;28;9524;-68
2022/06/19 03:08:08;;;;;;;;;12.50;12.50;;;;;;;;5289640;28;8889;-68
2022/06/19 03:10:39;;;;;;;;;29.00;27.20;;;;;;;;5289612;28;8909;-68
2022/06/19 03:13:09;;;;;;;;;69.50;53.75;;;;;;;;5289054;28;8816;-68
2022/06/19 03:15:40;;;;;;;;;90.00;84.00;;;;;;;;5254595;28;8747;-68
2022/06/19 03:18:11;;;;;;;;;67.75;54.75;;;;;;;;5270808;28;8790;-68
2022/06/19 03:21:01;;;;;;;;;24.80;24.40;;;;;;;;5289497;28;11411;-68
2022/06/19 03:23:32;;;;;;;;;38.75;34.75;;;;;;;;5270461;28;8828;-68
2022/06/19 03:26:03;;;;;;;;;19.50;19.00;;;;;;;;5271129;28;9723;-68
2022/06/19 03:28:34;;;;;;;;;22.20;22.20;;;;;;;;5289463;28;8774;-68
2022/06/19 03:31:05;;;;;;;;;43.20;37.00;;;;;;;;5289519;28;8758;-68
2022/06/19 03:33:36;;;;;;;;;36.25;33.25;;;;;;;;5288213;28;8798;-68
2022/06/19 03:36:07;;;;;;;;;16.50;16.50;;;;;;;;5289022;28;8830;-69
2022/06/19 03:38:38;;;;;;;;;8.00;8.00;;;;;;;;5270702;28;11601;-70
2022/06/19 03:41:10;;;;;;;;;3.00;3.00;;;;;;;;5288062;28;8790;-70
2022/06/19 03:43:41;;;;;;;;;4.25;4.25;;;;;;;;5253979;28;8762;-68
2022/06/19 03:46:14;;;;;;;;;6.00;6.00;;;;;;;;5270823;28;8897;-68
2022/06/19 03:48:47;;;;;;;;;20.80;20.80;;;;;;;;5270583;28;8870;-68
2022/06/19 03:51:36;;;;;;;;;11.25;11.25;;;;;;;;5289136;28;9464;-69
2022/06/19 03:54:08;;;;;;;;;6.00;6.00;;;;;;;;5288806;28;8831;-68
2022/06/19 03:56:39;;;;;;;;;8.50;8.50;;;;;;;;5270318;28;8878;-68
2022/06/19 03:59:10;;;;;;;;;3.00;3.00;;;;;;;;5288342;28;8806;-68
2022/06/19 04:01:41;;;;;;;;;5.00;5.00;;;;;;;;5288592;28;8786;-68
2022/06/19 04:04:12;;;;;;;;;7.00;7.00;;;;;;;;5288773;28;9530;-68
2022/06/19 04:07:02;;;;;;;;;6.75;6.75;;;;;;;;5289644;28;8782;-68
2022/06/19 04:09:34;;;;;;;;;7.00;7.00;;;;;;;;5270379;28;8870;-68
2022/06/19 04:12:05;;;;;;;;;10.75;10.75;;;;;;;;5287898;28;8850;-68
2022/06/19 04:14:36;;;;;;;;;9.25;9.25;;;;;;;;5270291;28;8742;-68
2022/06/19 04:17:08;;;;;;;;;7.75;7.75;;;;;;;;5288552;28;8838;-68
2022/06/19 04:19:39;;;;;;;;;8.50;8.50;;;;;;;;5269629;28;8975;-68
2022/06/19 04:22:10;;;;;;;;;6.67;6.67;;;;;;;;5270294;28;8873;-68
2022/06/19 04:25:00;;;;;;;;;7.50;7.50;;;;;;;;5288558;28;9313;-68
2022/06/19 04:27:31;;;;;;;;;6.75;6.75;;;;;;;;5287950;28;8797;-68
2022/06/19 04:30:21;;;;;;;;;3.50;3.50;;;;;;;;5288410;28;8851;-68
2022/06/19 04:33:10;;;;;;;;;5.75;5.75;;;;;;;;5289110;28;8908;-68
2022/06/19 04:35:59;;;;;;;;;6.25;6.25;;;;;;;;5288665;28;8781;-68
2022/06/19 04:38:30;;;;;;;;;5.50;5.50;;;;;;;;5287768;28;8817;-69
2022/06/19 04:41:01;;;;;;;;;4.00;4.00;;;;;;;;5268949;28;8786;-68
2022/06/19 04:43:32;;;;;;;;;3.75;3.75;;;;;;;;5288282;28;11341;-68
2022/06/19 04:46:22;;;;;;;;;4.00;4.00;;;;;;;;5288113;28;9552;-68
2022/06/19 04:48:53;;;;;;;;;3.00;3.00;;;;;;;;5288220;28;8761;-69
2022/06/19 04:51:24;;;;;;;;;3.00;3.00;;;;;;;;5290105;28;8758;-68
2022/06/19 04:53:55;;;;;;;;;3.25;3.25;;;;;;;;5292808;28;8847;-86
2022/06/19 04:56:26;;;;;;;;;5.00;5.00;;;;;;;;5274022;28;8770;-73
2022/06/19 04:58:57;;;;;;;;;5.50;5.50;;;;;;;;5293438;27;10185;-72
2022/06/19 05:01:30;;;;;;;;;4.00;4.00;;;;;;;;5236343;28;8910;-72
2022/06/19 05:04:02;;;;;;;;;4.75;4.75;;;;;;;;5269640;28;8804;-72
2022/06/19 05:06:33;;;;;;;;;2.25;2.25;;;;;;;;5234885;28;9429;-72
2022/06/19 05:09:05;;;;;;;;;4.25;4.25;;;;;;;;5241083;28;8811;-72
2022/06/19 05:11:36;;;;;;;;;4.00;4.00;;;;;;;;5251038;28;8825;-72
2022/06/19 05:14:07;;;;;;;;;5.00;5.00;;;;;;;;5217889;28;8784;-73
2022/06/19 05:16:38;;;;;;;;;3.00;3.00;;;;;;;;5273661;28;8801;-72
2022/06/19 05:19:10;;;;;;;;;4.75;4.75;;;;;;;;5271712;28;8828;-72
2022/06/19 05:21:41;;;;;;;;;3.50;3.50;;;;;;;;5255047;28;8784;-72
2022/06/19 05:24:12;;;;;;;;;3.50;3.50;;;;;;;;5271936;28;8897;-72
2022/06/19 05:26:43;;;;;;;;;2.00;2.00;;;;;;;;5254344;28;8794;-72
2022/06/19 05:29:15;;;;;;;;;2.25;2.25;;;;;;;;5271384;28;8821;-72
2022/06/19 05:31:46;;;;;;;;;4.00;4.00;;;;;;;;5271662;28;8777;-72
2022/06/19 05:34:17;;;;;;;;;6.75;6.75;;;;;;;;5271618;28;8785;-72
2022/06/19 05:36:48;;;;;;;;;3.75;3.75;;;;;;;;5276203;28;8780;-72
2022/06/19 05:39:20;;;;;;;;;3.00;3.00;;;;;;;;5216996;28;8815;-72
2022/06/19 05:42:09;;;;;;;;;2.25;2.25;;;;;;;;5253544;28;8776;-72
2022/06/19 05:44:40;;;;;;;;;1.50;1.50;;;;;;;;5217508;28;8783;-72
2022/06/19 05:47:11;;;;;;;;;3.75;3.75;;;;;;;;5250637;28;8775;-73
2022/06/19 05:49:42;;;;;;;;;4.00;4.00;;;;;;;;5235737;28;8796;-72
2022/06/19 05:52:15;;;;;;;;;2.00;2.00;;;;;;;;5268336;27;8881;-73
2022/06/19 05:54:47;;;;;;;;;2.25;2.25;;;;;;;;5259694;27;8788;-72
2022/06/19 05:57:18;;;;;;;;;2.00;2.00;;;;;;;;5261689;27;8771;-72
2022/06/19 05:59:50;;;;;;;;;1.50;1.50;;;;;;;;5267135;27;8779;-71
2022/06/19 06:02:23;;;;;;;;;0.00;0.00;;;;;;;;5260746;28;8779;-71
2022/06/19 06:04:54;;;;;;;;;0.50;0.50;;;;;;;;5272986;28;9035;-70
2022/06/19 06:07:25;;;;;;;;;3.00;3.00;;;;;;;;5256641;28;8788;-71
2022/06/19 06:09:56;;;;;;;;;3.00;3.00;;;;;;;;5251625;28;8772;-72
2022/06/19 06:12:27;;;;;;;;;4.00;4.00;;;;;;;;5234667;28;8803;-72
2022/06/19 06:14:58;;;;;;;;;5.00;4.00;;;;;;;;5235186;28;8776;-72
2022/06/19 06:17:29;;;;;;;;;1.75;1.75;;;;;;;;5238295;28;8788;-72
2022/06/19 06:20:01;;;;;;;;;2.00;2.00;;;;;;;;5250911;28;8844;-72
2022/06/19 06:22:33;;;;;;;;;3.00;3.00;;;;;;;;5267621;28;8807;-72
2022/06/19 06:25:05;;;;;;;;;2.75;2.75;;;;;;;;5235768;28;8766;-73
2022/06/19 06:27:54;;;;;;;;;4.00;4.00;;;;;;;;5270987;28;8824;-72
2022/06/19 06:30:25;;;;;;;;;4.25;4.25;;;;;;;;5287395;28;8782;-72
2022/06/19 06:32:57;;;;;;;;;3.75;3.75;;;;;;;;5271663;28;8975;-72
2022/06/19 06:35:28;;;;;;;;;2.00;2.00;;;;;;;;5270789;28;8807;-72
2022/06/19 06:37:59;;;;;;;;;3.00;3.00;;;;;;;;5272195;28;8916;-71
2022/06/19 06:40:30;;;;;;;;;2.25;2.25;;;;;;;;5270567;28;8810;-72
2022/06/19 06:43:02;;;;;;;;;4.00;4.00;;;;;;;;5265446;28;8786;-72
2022/06/19 06:45:36;;;;;;;;;2.00;2.00;;;;;;;;5288479;28;8790;-73
2022/06/19 06:48:08;;;;;;;;;2.00;2.00;;;;;;;;5279666;28;8909;-72
2022/06/19 06:50:40;;;;;;;;;4.00;4.00;;;;;;;;5279413;28;8809;-72
2022/06/19 06:53:11;;;;;;;;;3.00;3.00;;;;;;;;5253297;28;8766;-73
2022/06/19 06:56:01;;;;;;;;;1.75;1.75;;;;;;;;5273646;28;8786;-74
2022/06/19 06:58:32;;;;;;;;;1.25;1.25;;;;;;;;5250386;28;8892;-72
2022/06/19 07:01:08;;;;;;;;;3.00;3.00;;;;;;;;5261634;28;8806;-71
2022/06/19 07:03:39;;;;;;;;;4.00;4.00;;;;;;;;5260477;28;8802;-71
2022/06/19 07:06:11;;;;;;;;;4.50;4.50;;;;;;;;5267106;28;8832;-72
2022/06/19 07:08:42;;;;;;;;;4.00;4.00;;;;;;;;5252690;28;8816;-72
2022/06/19 07:11:48;;;;;;;;;3.50;3.50;;;;;;;;5270879;28;8785;-70
2022/06/19 07:14:20;;;;;;;;;2.75;2.75;;;;;;;;5258692;28;8806;-74
2022/06/19 07:16:52;;;;;;;;;2.00;2.00;;;;;;;;5281740;28;8843;-73
2022/06/19 07:19:41;;;;;;;;;4.75;4.75;;;;;;;;5279108;28;9507;-73
2022/06/19 07:22:14;;;;;;;;;3.50;3.50;;;;;;;;5260194;28;8815;-73
2022/06/19 07:24:46;;;;;;;;;4.00;4.00;;;;;;;;5265961;28;8826;-73
2022/06/19 07:27:17;;;;;;;;;4.00;4.00;;;;;;;;5286109;28;8913;-74
2022/06/19 07:29:49;;;;;;;;;9.00;9.00;;;;;;;;5232402;28;8930;-71
2022/06/19 07:32:39;;;;;;;;;5.50;5.50;;;;;;;;5279467;28;8806;-72
2022/06/19 07:35:10;;;;;;;;;3.25;3.25;;;;;;;;5249951;28;8826;-74
2022/06/19 07:37:41;;;;;;;;;2.00;2.00;;;;;;;;5260583;28;8801;-74
2022/06/19 07:40:13;;;;;;;;;3.00;3.00;;;;;;;;5282941;28;9539;-73
2022/06/19 07:42:44;;;;;;;;;4.25;4.25;;;;;;;;5248684;28;8803;-73
2022/06/19 07:45:16;;;;;;;;;3.50;3.25;;;;;;;;5266192;28;8808;-74
2022/06/19 07:50:55;;;;;;;;;4.00;4.00;;;;;;;;5281789;28;8831;-74
2022/06/19 07:53:26;;;;;;;;;3.50;3.50;;;;;;;;5271988;28;8782;-74
2022/06/19 07:55:58;;;;;;;;;6.50;6.50;;;;;;;;5235179;28;8988;-75
2022/06/19 07:58:47;;;;;;;;;3.00;3.00;;;;;;;;5273072;28;8836;-74
2022/06/19 08:01:19;;;;;;;;;1.00;1.00;;;;;;;;5273629;28;8782;-74
2022/06/19 08:04:09;;;;;;;;;2.00;2.00;;;;;;;;5260244;28;8786;-74
2022/06/19 08:06:40;;;;;;;;;3.50;3.50;;;;;;;;5268634;28;8958;-75
2022/06/19 08:09:11;;;;;;;;;3.33;3.33;;;;;;;;5258186;28;8770;-73
2022/06/19 08:11:45;;;;;;;;;2.50;2.50;;;;;;;;5237549;28;11440;-74
2022/06/19 08:14:16;;;;;;;;;5.00;5.00;;;;;;;;5244991;28;8796;-74
2022/06/19 08:16:47;;;;;;;;;4.00;4.00;;;;;;;;5239029;28;8807;-73
2022/06/19 08:19:18;;;;;;;;;0.00;0.00;;;;;;;;5263548;28;8849;-73
2022/06/19 08:21:49;;;;;;;;;2.67;2.67;;;;;;;;5271147;28;8746;-73
2022/06/19 08:24:38;;;;;;;;;5.75;5.75;;;;;;;;5270986;28;12151;-74
2022/06/19 08:27:09;;;;;;;;;2.50;2.50;;;;;;;;5277484;28;8786;-73
2022/06/19 08:29:40;;;;;;;;;3.50;3.50;;;;;;;;5233614;28;8811;-73
2022/06/19 08:32:11;;;;;;;;;5.00;5.00;;;;;;;;5279676;28;8810;-75
2022/06/19 08:34:42;;;;;;;;;1.00;1.00;;;;;;;;5253494;28;11379;-74
2022/06/19 08:37:14;;;;;;;;;1.67;1.67;;;;;;;;5283513;28;8792;-75
2022/06/19 08:39:46;;;;;;;;;1.00;1.00;;;;;;;;5275339;28;11511;-73
2022/06/19 08:42:22;;;;;;;;;1.50;1.50;;;;;;;;5266970;28;8774;-74
2022/06/19 08:45:25;;;;;;;;;1.75;1.75;;;;;;;;5269079;28;8853;-74
2022/06/19 08:48:06;;;;;;;;;4.00;3.75;;;;;;;;5274637;28;8910;-73
2022/06/19 08:50:56;;;;;;;;;2.50;2.50;;;;;;;;5286861;28;8911;-74
2022/06/19 08:53:43;;;;;;;;;1.25;1.25;;;;;;;;5269203;28;8812;-73
2022/06/19 08:56:33;;;;;;;;;3.25;3.25;;;;;;;;5265594;28;8789;-74
2022/06/19 08:59:27;;;;;;;;;4.75;4.75;;;;;;;;5266547;28;8815;-74
2022/06/19 09:01:58;;;;;;;;;2.25;2.25;;;;;;;;5227666;28;8856;-74
2022/06/19 09:07:55;;;;;;;;;2.00;2.00;;;;;;;;5244929;28;8796;-75
2022/06/19 09:10:26;;;;;;;;;1.50;1.50;;;;;;;;5245700;28;8806;-75
2022/06/19 09:13:15;;;;;;;;;1.75;1.75;;;;;;;;5262978;28;8944;-75
2022/06/19 09:15:46;;;;;;;;;2.00;2.00;;;;;;;;5250298;28;8808;-75
2022/06/19 09:18:22;;;;;;;;;2.00;2.00;;;;;;;;5270171;28;8832;-76
2022/06/19 09:21:08;;;;;;;;;1.00;1.00;;;;;;;;5249024;28;8801;-75
2022/06/19 09:23:48;;;;;;;;;4.75;4.75;;;;;;;;5244434;28;8808;-76
2022/06/19 09:26:19;;;;;;;;;0.25;0.25;;;;;;;;5244138;28;8850;-77
2022/06/19 09:29:02;;;;;;;;;1.00;1.00;;;;;;;;5261467;28;8777;-74
2022/06/19 09:31:42;;;;;;;;;3.33;3.33;;;;;;;;5268439;28;12160;-75
2022/06/19 09:34:24;;;;;;;;;0.25;0.25;;;;;;;;5266686;28;8782;-75
2022/06/19 09:36:56;;;;;;;;;1.25;1.25;;;;;;;;5265212;28;8778;-75
2022/06/19 09:40:09;;;;;;;;;1.00;1.00;;;;;;;;5268843;28;8968;-75
2022/06/19 09:42:46;;;;;;;;;2.00;2.00;;;;;;;;5261286;28;9516;-75
2022/06/19 09:45:29;;;;;;;;;0.00;0.00;;;;;;;;5252460;28;8778;-76
2022/06/19 09:48:07;;;;;;;;;3.00;3.00;;;;;;;;5252247;28;8839;-75
2022/06/19 09:50:50;;;;;;;;;2.00;2.00;;;;;;;;5268868;28;8820;-75
2022/06/19 09:53:27;;;;;;;;;3.00;3.00;;;;;;;;5235276;28;8797;-75
2022/06/19 09:56:12;;;;;;;;;1.00;1.00;;;;;;;;5252146;28;8778;-76
2022/06/19 09:58:51;;;;;;;;;4.50;4.50;;;;;;;;5269847;28;8882;-75
2022/06/19 10:01:24;;;;;;;;;4.00;4.00;;;;;;;;5269346;28;8905;-75
2022/06/19 10:04:14;;;;;;;;;2.25;2.25;;;;;;;;5267404;28;8774;-75
2022/06/19 10:07:09;;;;;;;;;4.00;4.00;;;;;;;;5253955;28;8856;-78
2022/06/19 10:09:46;;;;;;;;;1.00;1.00;;;;;;;;5250902;28;8820;-78
2022/06/19 10:12:27;;;;;;;;;1.00;1.00;;;;;;;;5250612;28;9889;-78
2022/06/19 10:15:22;;;;;;;;;3.00;3.00;;;;;;;;5253863;28;8786;-78
2022/06/19 10:17:57;;;;;;;;;3.25;3.25;;;;;;;;5270519;28;8785;-77
2022/06/19 10:20:32;;;;;;;;;2.50;2.50;;;;;;;;5272971;28;8813;-79
2022/06/19 10:23:03;;;;;;;;;3.25;3.25;;;;;;;;5272645;28;8762;-75
2022/06/19 10:25:45;;;;;;;;;4.75;4.75;;;;;;;;5240483;27;8847;-76
2022/06/19 10:28:23;;;;;;;;;3.25;3.25;;;;;;;;5252053;28;8772;-75
2022/06/19 10:31:03;;;;;;;;;2.00;2.00;;;;;;;;5285233;28;8780;-75
2022/06/19 10:33:33;;;;;;;;;4.75;4.75;;;;;;;;5268244;28;8752;-74
2022/06/19 10:36:14;;;;;;;;;2.25;2.25;;;;;;;;5251243;28;8783;-75
2022/06/19 10:39:04;;;;;;;;;1.75;1.75;;;;;;;;5247003;27;8839;-75
2022/06/19 10:44:43;;;;;;;;;2.00;2.00;;;;;;;;5267056;28;8780;-75
2022/06/19 10:47:44;;;;;;;;;2.00;2.00;;;;;;;;5234145;28;9521;-75
2022/06/19 10:50:45;;;;;;;;;4.00;4.00;;;;;;;;5236672;28;8922;-76
2022/06/19 10:53:16;;;;;;;;;3.75;3.75;;;;;;;;5250923;28;8772;-75
2022/06/19 10:56:01;;;;;;;;;2.00;2.00;;;;;;;;5250289;28;8814;-77
2022/06/19 10:58:32;;;;;;;;;1.50;1.50;;;;;;;;5250717;28;8777;-75
2022/06/19 11:01:04;;;;;;;;;2.00;2.00;;;;;;;;5250438;28;8787;-75
2022/06/19 11:04:07;;;;;;;;;2.00;2.00;;;;;;;;5236299;28;8788;-76
2022/06/19 11:06:51;;;;;;;;;2.00;2.00;;;;;;;;5251117;28;8764;-76
2022/06/19 11:09:46;;;;;;;;;1.00;1.00;;;;;;;;5236621;28;8780;-76
2022/06/19 11:12:33;;;;;;;;;1.75;1.75;;;;;;;;5267101;28;9495;-76
2022/06/19 11:15:06;;;;;;;;;1.75;1.75;;;;;;;;5267522;28;8784;-75
2022/06/19 11:17:38;;;;;;;;;0.75;0.75;;;;;;;;5233543;28;8775;-74
2022/06/19 11:20:30;;;;;;;;;1.00;1.00;;;;;;;;5246152;28;8842;-75
2022/06/19 11:23:28;;;;;;;;;0.00;0.00;;;;;;;;5263394;28;8787;-75
2022/06/19 11:26:26;;;;;;;;;0.00;0.00;;;;;;;;5232215;28;8787;-74
2022/06/19 11:29:18;;;;;;;;;0.00;0.00;;;;;;;;5246240;28;8779;-77
2022/06/19 11:32:04;;;;;;;;;0.75;0.75;;;;;;;;5247074;28;8775;-77
2022/06/19 11:34:51;;;;;;;;;1.25;1.25;;;;;;;;5233371;28;8792;-77
2022/06/19 11:37:23;;;;;;;;;0.50;0.50;;;;;;;;5266959;28;8937;-75
2022/06/19 11:40:10;;;;;;;;;0.50;0.50;;;;;;;;5249111;28;8842;-75
2022/06/19 11:42:45;;;;;;;;;2.00;2.00;;;;;;;;5265013;28;8796;-75
2022/06/19 11:45:15;;;;;;;;;1.00;1.00;;;;;;;;5258191;28;8806;-75
2022/06/19 11:47:48;;;;;;;;;1.00;1.00;;;;;;;;5251981;28;8788;-75
2022/06/19 11:50:20;;;;;;;;;1.25;1.25;;;;;;;;5229843;28;11404;-75
2022/06/19 11:52:53;;;;;;;;;1.00;1.00;;;;;;;;5256038;28;8862;-75
2022/06/19 11:55:24;;;;;;;;;1.00;1.00;;;;;;;;5231483;28;8781;-75
2022/06/19 11:57:56;;;;;;;;;1.00;1.00;;;;;;;;5231116;28;9507;-75
2022/06/19 12:00:52;;;;;;;;;1.50;1.50;;;;;;;;5265076;28;8871;-75
2022/06/19 12:03:29;;;;;;;;;2.00;2.00;;;;;;;;5248340;28;8776;-75
2022/06/19 12:06:03;;;;;;;;;1.00;1.00;;;;;;;;5285462;28;8786;-74
2022/06/19 12:08:36;;;;;;;;;0.75;0.75;;;;;;;;5251805;28;8796;-75
2022/06/19 12:11:55;;;;;;;;;0.75;0.75;;;;;;;;5285995;28;8789;-75
2022/06/19 12:14:28;;;;;;;;;2.00;2.00;;;;;;;;5255428;28;8983;-76
2022/06/19 12:17:17;;;;;;;;;0.75;0.75;;;;;;;;5266504;28;8813;-75
2022/06/19 12:20:06;;;;;;;;;5.00;5.00;;;;;;;;5285579;28;8814;-75
2022/06/19 12:22:58;;;;;;;;;5.75;5.75;;;;;;;;5268076;28;8921;-75
2022/06/19 12:25:50;;;;;;;;;21.25;19.50;;;;;;;;5265242;28;8788;-75
2022/06/19 12:28:25;;;;;;;;;17.25;16.25;;;;;;;;5247484;28;8769;-75
2022/06/19 12:31:00;;;;;;;;;6.50;6.50;;;;;;;;5264175;28;8816;-76
2022/06/19 12:33:37;;;;;;;;;10.00;10.00;;;;;;;;5264853;28;9515;-76
2022/06/19 12:36:15;;;;;;;;;12.00;12.00;;;;;;;;5246073;28;8809;-79
2022/06/19 12:38:47;;;;;;;;;4.75;4.75;;;;;;;;5232203;28;8889;-80
2022/06/19 12:41:28;;;;;;;;;6.50;6.50;;;;;;;;5248643;28;8935;-80
2022/06/19 12:44:18;;;;;;;;;6.00;6.00;;;;;;;;5249129;28;8780;-79
2022/06/19 12:46:55;;;;;;;;;7.75;7.75;;;;;;;;5249955;28;8819;-78
2022/06/19 12:49:32;;;;;;;;;3.00;3.00;;;;;;;;5244994;28;8830;-78
2022/06/19 12:52:16;;;;;;;;;2.00;2.00;;;;;;;;5247187;28;8936;-78
2022/06/19 12:55:01;;;;;;;;;1.75;1.75;;;;;;;;5266000;28;8819;-78
2022/06/19 12:57:40;;;;;;;;;1.50;1.50;;;;;;;;5249289;28;8811;-76
2022/06/19 13:00:29;;;;;;;;;1.00;1.00;;;;;;;;5232211;28;8816;-75
2022/06/19 13:03:21;;;;;;;;;2.00;2.00;;;;;;;;5249327;28;9511;-75
2022/06/19 13:06:11;;;;;;;;;2.25;2.25;;;;;;;;5265634;28;8849;-75
2022/06/19 13:08:48;;;;;;;;;18.60;18.40;;;;;;;;5222919;28;8799;-75
2022/06/19 13:11:29;;;;;;;;;3.50;3.25;;;;;;;;5244641;28;8897;-76
2022/06/19 13:14:23;;;;;;;;;3.00;3.00;;;;;;;;5236164;28;8784;-75
2022/06/19 13:17:02;;;;;;;;;2.00;2.00;;;;;;;;5235950;28;8898;-75
2022/06/19 13:19:33;;;;;;;;;1.75;1.75;;;;;;;;5269663;28;8925;-75
2022/06/19 13:22:04;;;;;;;;;2.50;2.50;;;;;;;;5236633;28;9521;-75
2022/06/19 13:24:53;;;;;;;;;1.00;1.00;;;;;;;;5269667;28;8853;-75
2022/06/19 13:27:32;;;;;;;;;1.25;1.25;;;;;;;;5283482;28;8824;-74
2022/06/19 13:30:02;;;;;;;;;14.00;12.25;;;;;;;;5290771;28;8812;-75
2022/06/19 13:32:52;;;;;;;;;9.75;9.75;;;;;;;;5256976;28;8799;-75
2022/06/19 13:35:29;;;;;;;;;145.00;114.60;;;;;;;;5273439;28;9596;-75
2022/06/19 13:37:59;;;;;;;;;154.00;132.00;;;;;;;;5281694;28;9523;-76
2022/06/19 13:40:40;;;;;;;;;14.00;13.75;;;;;;;;5235957;28;9158;-74
2022/06/19 13:43:28;;;;;;;;;5.75;5.75;;;;;;;;5252474;28;8776;-75
2022/06/19 13:46:14;;;;;;;;;3.50;3.50;;;;;;;;5269438;28;8895;-74
2022/06/19 13:48:57;;;;;;;;;1.00;1.00;;;;;;;;5271144;28;8781;-74
2022/06/19 13:51:28;;;;;;;;;1.25;1.25;;;;;;;;5252084;28;8769;-74
2022/06/19 13:54:11;;;;;;;;;3.00;3.00;;;;;;;;5235465;28;8769;-75
2022/06/19 13:56:42;;;;;;;;;2.50;2.50;;;;;;;;5268725;28;8790;-74
2022/06/19 13:59:31;;;;;;;;;1.00;1.00;;;;;;;;5269521;28;8893;-74
2022/06/19 14:02:21;;;;;;;;;1.00;1.00;;;;;;;;5251724;28;8818;-74
2022/06/19 14:05:15;;;;;;;;;1.00;1.00;;;;;;;;5235390;28;8780;-74
2022/06/19 14:08:04;;;;;;;;;6.50;6.50;;;;;;;;5251918;28;8877;-74
2022/06/19 14:10:35;;;;;;;;;3.25;3.25;;;;;;;;5251874;28;8784;-75
2022/06/19 14:13:12;;;;;;;;;3.67;3.67;;;;;;;;5265211;28;8861;-74
2022/06/19 14:15:52;;;;;;;;;1.00;1.00;;;;;;;;5250925;28;10806;-75
2022/06/19 14:18:41;;;;;;;;;2.25;2.25;;;;;;;;5267741;28;8793;-75
2022/06/19 14:21:15;;;;;;;;;1.00;1.00;;;;;;;;5250180;28;8778;-75
2022/06/19 14:23:49;;;;;;;;;2.00;2.00;;;;;;;;5266950;28;8876;-75
2022/06/19 14:26:39;;;;;;;;;1.00;1.00;;;;;;;;5267513;28;8937;-76
2022/06/19 14:29:09;;;;;;;;;5.75;5.75;;;;;;;;5232133;28;8783;-75
2022/06/19 14:31:40;;;;;;;;;3.00;3.00;;;;;;;;5269978;28;8805;-74
2022/06/19 14:34:11;;;;;;;;;4.75;4.75;;;;;;;;5251025;28;8942;-75
2022/06/19 14:36:42;;;;;;;;;2.75;2.75;;;;;;;;5250635;28;8811;-75
2022/06/19 14:39:16;;;;;;;;;2.33;2.33;;;;;;;;5250803;28;8820;-75
2022/06/19 14:41:58;;;;;;;;;3.00;3.00;;;;;;;;5251842;28;11423;-75
2022/06/19 14:44:32;;;;;;;;;2.00;2.00;;;;;;;;5267862;28;8861;-76
2022/06/19 14:47:23;;;;;;;;;13.50;13.50;;;;;;;;5247127;28;8867;-75
2022/06/19 14:50:13;;;;;;;;;4.75;4.75;;;;;;;;5256378;28;8803;-76
2022/06/19 14:53:00;;;;;;;;;1.75;1.75;;;;;;;;5239834;28;8804;-75
2022/06/19 14:55:38;;;;;;;;;1.00;1.00;;;;;;;;5250225;28;8789;-74
2022/06/19 14:58:24;;;;;;;;;3.50;3.50;;;;;;;;5246332;28;8779;-74
2022/06/19 15:01:01;;;;;;;;;3.00;2.75;;;;;;;;5222608;28;8843;-74
2022/06/19 15:03:42;;;;;;;;;3.00;3.00;;;;;;;;5246280;28;8791;-75
2022/06/19 15:06:21;;;;;;;;;3.00;3.00;;;;;;;;5269776;28;8793;-74
2022/06/19 15:08:55;;;;;;;;;2.00;2.00;;;;;;;;5254600;28;8860;-74
2022/06/19 15:11:46;;;;;;;;;2.00;2.00;;;;;;;;5288269;28;8790;-75
2022/06/19 15:14:30;;;;;;;;;2.00;2.00;;;;;;;;5288160;28;8770;-74
2022/06/19 15:17:05;;;;;;;;;2.50;2.50;;;;;;;;5271366;28;8789;-74
2022/06/19 15:19:36;;;;;;;;;3.00;3.00;;;;;;;;5296821;27;9536;-75
2022/06/19 15:22:27;;;;;;;;;2.50;2.50;;;;;;;;5254445;28;8782;-74
2022/06/19 15:25:22;;;;;;;;;1.00;1.00;;;;;;;;5267231;27;8770;-75
2022/06/19 15:27:53;;;;;;;;;0.00;0.00;;;;;;;;5292130;27;8864;-75
2022/06/19 15:30:37;;;;;;;;;1.25;1.25;;;;;;;;5254162;28;8785;-76
2022/06/19 15:33:08;;;;;;;;;2.00;2.00;;;;;;;;5271285;28;8812;-75
2022/06/19 15:36:01;;;;;;;;;2.00;2.00;;;;;;;;5255505;28;8782;-75
2022/06/19 15:38:35;;;;;;;;;1.25;1.25;;;;;;;;5270945;28;8797;-75
2022/06/19 15:41:27;;;;;;;;;2.50;2.50;;;;;;;;5261054;27;8768;-74
2022/06/19 15:44:17;;;;;;;;;2.50;2.50;;;;;;;;5281265;27;8876;-77
2022/06/19 15:47:06;;;;;;;;;4.00;4.00;;;;;;;;5260534;27;8823;-76
2022/06/19 15:50:09;;;;;;;;;4.75;4.75;;;;;;;;5254322;28;8765;-76
2022/06/19 15:52:47;;;;;;;;;1.50;1.50;;;;;;;;5240139;28;8850;-76
2022/06/19 15:55:34;;;;;;;;;1.25;1.25;;;;;;;;5269713;28;8900;-74
2022/06/19 15:58:34;;;;;;;;;4.25;4.25;;;;;;;;5258722;27;8800;-76
2022/06/19 16:01:23;;;;;;;;;4.75;4.75;;;;;;;;5252776;28;8822;-75
2022/06/19 16:03:56;;;;;;;;;5.33;5.33;;;;;;;;5265977;28;8778;-74
2022/06/19 16:06:44;;;;;;;;;4.00;4.00;;;;;;;;5286241;27;8787;-75